Time;durP1;ratioP1;P1;durP2;ratioP2;P2;SDS_P1;SDS_P2;PMS_P1;PMS_P2;Temp;Humidity;BMP_temperature;BMP_pressure;BME280_temperature;BME280_humidity;BME280_pressure;Samples;Min_cycle;Max_cycle;Signal;HPM_P1;HPM_P2
2021/06/14 00:00:10;;;;;;;5.57;3.77;;;13.40;99.90;;;;;;476850;248;29050;-71
2021/06/14 00:02:11;;;;;;;7.13;4.60;;;13.40;99.90;;;;;;495898;240;28855;-71
2021/06/14 00:04:12;;;;;;;5.27;4.10;;;13.20;99.90;;;;;;476852;248;28466;-71
2021/06/14 00:06:14;;;;;;;3.93;3.60;;;13.20;99.90;;;;;;488995;237;28663;-71
2021/06/14 00:08:15;;;;;;;4.23;3.23;;;13.20;99.90;;;;;;472880;251;28385;-71
2021/06/14 00:10:19;;;;;;;4.10;3.47;;;13.20;99.90;;;;;;466941;255;28661;-71
2021/06/14 00:12:21;;;;;;;3.90;3.33;;;13.20;99.90;;;;;;472782;251;28751;-70
2021/06/14 00:14:19;;;;;;;5.00;3.40;;;13.20;99.90;;;;;;472651;251;28447;-70
2021/06/14 00:16:20;;;;;;;4.33;3.40;;;13.20;99.90;;;;;;475191;239;28190;-71
2021/06/14 00:18:21;;;;;;;4.90;3.70;;;12.90;99.90;;;;;;475298;250;28445;-71
2021/06/14 00:20:23;;;;;;;4.80;3.70;;;12.50;99.90;;;;;;475292;250;28521;-71
2021/06/14 00:22:24;;;;;;;4.27;3.90;;;12.40;99.90;;;;;;475285;250;28889;-71
2021/06/14 00:24:25;;;;;;;5.07;4.10;;;12.40;99.90;;;;;;475286;250;28265;-71
2021/06/14 00:26:26;;;;;;;6.10;4.30;;;12.30;99.90;;;;;;478086;241;28139;-71
2021/06/14 00:28:28;;;;;;;6.17;3.90;;;12.50;99.90;;;;;;479251;248;28215;-71
2021/06/14 00:30:29;;;;;;;5.97;3.80;;;12.50;99.90;;;;;;479255;248;28373;-70
2021/06/14 00:32:30;;;;;;;5.63;3.87;;;12.50;99.90;;;;;;496778;239;28038;-70
2021/06/14 00:34:32;;;;;;;4.40;4.00;;;12.50;99.90;;;;;;497279;239;29463;-71
2021/06/14 00:36:33;;;;;;;5.10;3.53;;;12.60;99.90;;;;;;490044;239;28551;-71
2021/06/14 00:38:34;;;;;;;4.40;4.00;;;12.60;99.90;;;;;;476916;249;28324;-71
2021/06/14 00:40:36;;;;;;;4.30;3.77;;;12.70;99.90;;;;;;480350;246;28197;-71
2021/06/14 00:42:37;;;;;;;5.03;3.57;;;12.70;99.90;;;;;;475375;250;28251;-71
2021/06/14 00:44:40;;;;;;;5.10;4.10;;;12.60;99.90;;;;;;476915;249;28199;-71
2021/06/14 00:46:40;;;;;;;5.47;3.97;;;12.60;99.90;;;;;;476597;244;28906;-71
2021/06/14 00:48:41;;;;;;;10.10;4.43;;;12.60;99.90;;;;;;487020;244;28682;-70
2021/06/14 00:50:45;;;;;;;5.40;3.70;;;12.40;99.90;;;;;;487011;244;28291;-72
2021/06/14 00:52:47;;;;;;;4.07;3.70;;;12.30;99.90;;;;;;486942;244;28758;-71
2021/06/14 00:54:48;;;;;;;4.00;3.50;;;12.30;99.90;;;;;;487019;244;28630;-71
2021/06/14 00:56:50;;;;;;;4.30;3.90;;;12.40;99.90;;;;;;483390;239;28327;-71
2021/06/14 00:58:51;;;;;;;5.90;3.73;;;12.40;99.90;;;;;;478146;249;28848;-71
2021/06/14 01:00:52;;;;;;;5.73;4.03;;;12.50;99.90;;;;;;478165;249;28095;-71
2021/06/14 01:02:53;;;;;;;5.33;3.70;;;12.50;99.90;;;;;;478177;249;28130;-71
2021/06/14 01:04:55;;;;;;;4.53;4.13;;;12.50;99.90;;;;;;478162;249;28892;-71
2021/06/14 01:06:57;;;;;;;6.23;3.63;;;;;;;;;;479777;235;28901;-72
2021/06/14 01:09:00;;;;;;;4.90;3.13;;;;;;;;;;473978;250;26400;-71
2021/06/14 01:11:01;;;;;;;7.10;3.53;;;12.60;99.90;;;;;;473472;251;26651;-71
2021/06/14 01:13:06;;;;;;;4.17;3.80;;;12.50;99.90;;;;;;473955;251;28302;-71
2021/06/14 01:15:03;;;;;;;5.43;3.30;;;12.50;99.90;;;;;;473857;251;28661;-71
2021/06/14 01:17:05;;;;;;;4.43;3.20;;;12.50;99.90;;;;;;475570;236;28504;-70
2021/06/14 01:19:06;;;;;;;5.43;3.87;;;12.50;99.90;;;;;;478889;247;28841;-71
2021/06/14 01:21:08;;;;;;;4.73;3.00;;;12.50;99.90;;;;;;478892;247;28556;-71
2021/06/14 01:23:12;;;;;;;4.57;3.90;;;12.40;99.90;;;;;;475621;247;28646;-72
2021/06/14 01:25:10;;;;;;;4.60;3.60;;;12.40;99.90;;;;;;478546;248;28754;-71
2021/06/14 01:27:11;;;;;;;5.63;4.13;;;12.30;99.90;;;;;;477066;231;28202;-70
2021/06/14 01:29:13;;;;;;;7.90;3.87;;;12.30;99.90;;;;;;473780;251;28255;-71
2021/06/14 01:31:14;;;;;;;4.13;3.40;;;12.30;99.90;;;;;;482394;246;28142;-70
2021/06/14 01:33:15;;;;;;;17.10;4.53;;;12.40;99.90;;;;;;482369;246;28738;-71
2021/06/14 01:35:18;;;;;;;8.47;4.17;;;;;;;;;;482377;246;28191;-71
2021/06/14 01:37:19;;;;;;;5.03;3.50;;;12.30;99.90;;;;;;482518;239;27070;-71
2021/06/14 01:39:21;;;;;;;4.93;3.73;;;;;;;;;;483306;246;28417;-71
2021/06/14 01:41:22;;;;;;;5.53;3.93;;;12.40;99.90;;;;;;483353;246;27112;-71
2021/06/14 01:43:27;;;;;;;4.13;3.70;;;12.40;99.90;;;;;;483268;246;28842;-71
2021/06/14 01:45:28;;;;;;;4.90;3.37;;;12.40;99.90;;;;;;483172;246;28820;-71
2021/06/14 01:47:29;;;;;;;5.40;3.53;;;12.40;99.90;;;;;;479133;236;28680;-71
2021/06/14 01:49:30;;;;;;;5.10;3.70;;;12.30;99.90;;;;;;476795;249;28401;-71
2021/06/14 01:51:33;;;;;;;5.30;3.83;;;12.00;99.90;;;;;;476794;249;28330;-71
2021/06/14 01:53:34;;;;;;;7.20;3.80;;;11.80;99.90;;;;;;476789;249;28301;-71
2021/06/14 01:55:35;;;;;;;4.70;4.00;;;11.80;99.90;;;;;;476838;249;28864;-71
2021/06/14 01:57:37;;;;;;;4.23;3.83;;;11.90;99.90;;;;;;470362;239;29313;-71
2021/06/14 01:59:39;;;;;;;4.97;3.60;;;12.00;99.90;;;;;;468594;254;28662;-71
2021/06/14 02:01:41;;;;;;;4.43;3.60;;;12.20;99.90;;;;;;468546;254;28746;-71
2021/06/14 02:03:40;;;;;;;6.23;3.80;;;12.30;99.90;;;;;;468339;254;28620;-71
2021/06/14 02:05:41;;;;;;;5.00;3.50;;;12.30;99.90;;;;;;468557;254;28623;-71
2021/06/14 02:07:43;;;;;;;4.80;3.90;;;12.40;99.90;;;;;;494737;236;28410;-71
2021/06/14 02:09:47;;;;;;;3.70;3.40;;;12.40;99.90;;;;;;496524;239;28897;-71
2021/06/14 02:11:45;;;;;;;5.10;3.70;;;12.40;99.90;;;;;;495915;239;28769;-71
2021/06/14 02:13:47;;;;;;;4.60;3.67;;;12.50;99.90;;;;;;496519;239;28709;-70
2021/06/14 02:18:02;;;;;;;4.40;3.87;;;12.50;99.90;;;;;;497769;239;28029;-71
2021/06/14 02:20:04;;;;;;;3.90;3.60;;;;;;;;;;497666;239;28073;-71
2021/06/14 02:22:05;;;;;;;4.83;3.50;;;12.60;99.90;;;;;;497701;239;27368;-70
2021/06/14 02:24:07;;;;;;;4.40;3.63;;;12.60;99.90;;;;;;497677;239;28155;-71
2021/06/14 02:26:08;;;;;;;4.20;3.70;;;12.60;99.90;;;;;;494994;239;28772;-71
2021/06/14 02:28:09;;;;;;;3.40;3.10;;;12.80;99.90;;;;;;471372;252;28924;-71
2021/06/14 02:30:10;;;;;;;6.57;4.10;;;12.80;99.90;;;;;;485270;243;28410;-71
2021/06/14 02:32:12;;;;;;;5.73;3.60;;;12.80;99.90;;;;;;485280;244;28206;-71
2021/06/14 02:34:14;;;;;;;4.00;3.57;;;12.90;99.90;;;;;;485265;244;28222;-71
2021/06/14 02:36:15;;;;;;;6.73;4.43;;;13.00;99.90;;;;;;484980;241;28181;-70
2021/06/14 02:38:16;;;;;;;6.97;3.40;;;13.00;99.90;;;;;;481213;246;28789;-71
2021/06/14 02:40:18;;;;;;;4.27;3.30;;;13.00;99.90;;;;;;484173;245;28137;-71
2021/06/14 02:42:19;;;;;;;3.77;3.33;;;13.00;99.90;;;;;;484284;245;28148;-71
2021/06/14 02:44:22;;;;;;;4.03;3.50;;;;;;;;;;484309;245;28286;-70
2021/06/14 02:46:23;;;;;;;6.60;3.60;;;12.60;99.90;;;;;;483102;237;26935;-70
2021/06/14 02:48:27;;;;;;;4.47;3.20;;;12.30;99.90;;;;;;478719;248;28729;-71
2021/06/14 02:50:26;;;;;;;3.90;3.50;;;11.70;99.90;;;;;;478500;248;28167;-71
2021/06/14 02:52:27;;;;;;;4.70;3.87;;;11.50;99.90;;;;;;478355;248;28235;-70
2021/06/14 02:54:28;;;;;;;5.87;4.03;;;11.50;99.90;;;;;;478735;247;28145;-71
2021/06/14 02:56:29;;;;;;;4.70;3.70;;;11.60;99.90;;;;;;477790;237;28235;-70
2021/06/14 02:58:31;;;;;;;6.63;3.90;;;11.60;99.90;;;;;;458095;259;28387;-71
2021/06/14 03:00:32;;;;;;;5.73;4.23;;;11.60;99.90;;;;;;466821;254;28205;-71
2021/06/14 03:02:37;;;;;;;4.63;4.10;;;;;;;;;;466812;254;28643;-71
2021/06/14 03:04:38;;;;;;;5.37;4.10;;;11.60;99.90;;;;;;467624;254;27211;-71
2021/06/14 03:06:40;;;;;;;5.10;3.87;;;11.50;99.90;;;;;;470676;245;27979;-70
2021/06/14 03:08:41;;;;;;;4.67;4.20;;;11.50;99.90;;;;;;465283;254;28980;-71
2021/06/14 03:10:43;;;;;;;3.80;3.50;;;11.60;99.90;;;;;;475290;250;28513;-71
2021/06/14 03:12:44;;;;;;;6.70;3.83;;;11.60;99.90;;;;;;475086;249;28083;-71
2021/06/14 03:14:45;;;;;;;5.10;4.30;;;11.70;99.90;;;;;;465808;254;28117;-71
2021/06/14 03:16:47;;;;;;;6.00;4.03;;;11.70;99.90;;;;;;473507;239;28562;-71
2021/06/14 03:18:48;;;;;;;8.63;4.70;;;11.70;99.90;;;;;;483197;245;28958;-71
2021/06/14 03:20:55;;;;;;;7.17;4.07;;;11.70;99.90;;;;;;483261;245;28959;-71
2021/06/14 03:22:53;;;;;;;7.40;4.70;;;11.60;99.90;;;;;;483392;245;28567;-71
2021/06/14 03:24:56;;;;;;;4.60;3.60;;;;;;;;;;483235;246;28700;-72
2021/06/14 03:26:57;;;;;;;4.70;4.10;;;11.70;99.90;;;;;;490529;231;27073;-72
2021/06/14 03:28:58;;;;;;;5.10;4.60;;;11.80;99.90;;;;;;497558;239;28368;-71
2021/06/14 03:31:00;;;;;;;5.87;4.20;;;11.80;99.90;;;;;;479519;248;28565;-71
2021/06/14 03:33:01;;;;;;;5.27;4.17;;;11.70;99.90;;;;;;497520;239;28502;-71
2021/06/14 03:35:02;;;;;;;4.73;4.27;;;11.60;99.90;;;;;;497532;239;28788;-71
2021/06/14 03:37:04;;;;;;;5.30;4.60;;;11.60;99.90;;;;;;490055;239;28108;-71
2021/06/14 03:39:05;;;;;;;5.10;3.90;;;11.70;99.90;;;;;;470664;252;28851;-71
2021/06/14 03:41:06;;;;;;;6.30;4.30;;;11.80;99.90;;;;;;487667;243;28848;-71
2021/06/14 03:43:10;;;;;;;5.30;4.23;;;11.90;99.90;;;;;;470628;253;28059;-72
2021/06/14 03:45:11;;;;;;;4.27;3.83;;;11.90;99.90;;;;;;487697;243;28930;-71
2021/06/14 03:47:12;;;;;;;8.23;4.47;;;11.90;99.90;;;;;;462629;241;29007;-72
2021/06/14 03:49:14;;;;;;;4.37;3.97;;;12.00;99.90;;;;;;457790;259;28910;-71
2021/06/14 03:51:16;;;;;;;3.93;3.63;;;12.00;99.90;;;;;;469578;253;28859;-71
2021/06/14 03:53:17;;;;;;;4.90;4.30;;;11.90;99.90;;;;;;469574;252;29247;-71
2021/06/14 03:55:18;;;;;;;5.13;4.50;;;11.70;99.90;;;;;;469564;253;28502;-70
2021/06/14 03:57:19;;;;;;;7.30;4.47;;;11.60;99.90;;;;;;483438;240;28214;-71
2021/06/14 03:59:23;;;;;;;4.27;3.80;;;11.60;99.90;;;;;;496555;239;28275;-72
2021/06/14 04:01:22;;;;;;;6.23;4.47;;;11.60;99.90;;;;;;496354;239;28650;-71
2021/06/14 04:03:26;;;;;;;5.50;4.13;;;11.60;99.90;;;;;;496612;239;29646;-71
2021/06/14 04:05:24;;;;;;;5.60;4.40;;;11.60;99.90;;;;;;496396;239;29158;-72
2021/06/14 04:07:28;;;;;;;6.40;4.03;;;11.60;99.90;;;;;;489169;235;28804;-71
2021/06/14 04:09:27;;;;;;;5.93;4.13;;;11.60;99.90;;;;;;495775;240;28299;-71
2021/06/14 04:11:31;;;;;;;5.57;3.97;;;11.70;99.90;;;;;;495985;240;28818;-71
2021/06/14 04:13:32;;;;;;;5.80;3.83;;;11.70;99.90;;;;;;496082;240;28942;-71
2021/06/14 04:15:34;;;;;;;4.97;4.43;;;11.70;99.90;;;;;;496070;240;28308;-71
2021/06/14 04:17:35;;;;;;;7.10;4.37;;;11.80;99.90;;;;;;476336;236;28438;-70
2021/06/14 04:19:36;;;;;;;5.40;3.83;;;11.80;99.90;;;;;;483353;245;28207;-71
2021/06/14 04:21:37;;;;;;;4.50;4.03;;;11.90;99.90;;;;;;483336;246;28464;-71
2021/06/14 04:23:39;;;;;;;4.80;3.80;;;11.90;99.90;;;;;;483315;246;29421;-71
2021/06/14 04:25:40;;;;;;;5.80;4.00;;;12.00;99.90;;;;;;483185;246;28846;-70
2021/06/14 04:27:42;;;;;;;5.07;4.10;;;12.00;99.90;;;;;;497945;232;28459;-71
2021/06/14 04:29:43;;;;;;;5.40;4.07;;;12.00;99.90;;;;;;492236;240;28746;-71
2021/06/14 04:31:44;;;;;;;6.80;4.73;;;12.10;99.90;;;;;;492747;240;28542;-71
2021/06/14 04:33:45;;;;;;;5.90;3.90;;;12.10;99.90;;;;;;492341;241;28353;-71
2021/06/14 04:37:48;;;;;;;4.53;3.97;;;12.20;99.90;;;;;;468713;240;28124;-71
2021/06/14 04:39:50;;;;;;;6.10;4.50;;;12.20;99.90;;;;;;466866;255;28295;-71
2021/06/14 04:41:51;;;;;;;4.33;3.80;;;12.00;99.90;;;;;;466886;255;28786;-71
2021/06/14 04:43:53;;;;;;;6.40;4.57;;;;;;;;;;466849;255;28883;-71
2021/06/14 04:48:16;;;;;;;5.73;4.33;;;;;;;;;;459718;259;28213;-71
2021/06/14 04:50:18;;;;;;;8.20;5.20;;;11.90;99.90;;;;;;459693;258;26456;-71
2021/06/14 04:52:19;;;;;;;6.07;4.17;;;12.00;99.90;;;;;;459683;258;28699;-72
2021/06/14 04:54:21;;;;;;;5.90;4.70;;;12.10;99.90;;;;;;459660;258;28980;-72
2021/06/14 04:56:23;;;;;;;5.90;4.70;;;12.10;99.90;;;;;;470533;237;28105;-71
2021/06/14 04:58:24;;;;;;;4.17;3.80;;;12.10;99.90;;;;;;501363;237;28611;-71
2021/06/14 05:00:27;;;;;;;4.60;4.20;;;12.10;99.90;;;;;;501342;237;28770;-71
2021/06/14 05:02:27;;;;;;;4.10;3.70;;;12.20;99.90;;;;;;501277;237;28688;-71
2021/06/14 05:04:31;;;;;;;10.57;5.47;;;12.20;99.90;;;;;;501343;237;28123;-71
2021/06/14 05:06:35;;;;;;;5.80;3.83;;;12.30;99.90;;;;;;492963;235;28928;-71
2021/06/14 05:08:33;;;;;;;4.80;4.07;;;12.50;99.90;;;;;;478410;248;28169;-73
2021/06/14 05:10:35;;;;;;;5.17;4.40;;;12.60;99.90;;;;;;478644;248;28293;-71
2021/06/14 05:12:36;;;;;;;4.63;4.20;;;12.70;99.90;;;;;;478676;248;28391;-72
2021/06/14 05:14:37;;;;;;;4.27;3.87;;;12.80;99.90;;;;;;478728;248;28125;-71
2021/06/14 05:16:39;;;;;;;5.33;4.20;;;12.90;99.90;;;;;;478177;238;28099;-72
2021/06/14 05:18:40;;;;;;;4.20;3.80;;;12.90;99.90;;;;;;470716;253;28345;-71
2021/06/14 05:20:45;;;;;;;7.43;3.90;;;;;;;;;;473000;251;28191;-72
2021/06/14 05:22:47;;;;;;;4.27;3.87;;;13.10;99.90;;;;;;467289;254;26963;-71
2021/06/14 05:24:48;;;;;;;6.50;4.50;;;13.20;99.90;;;;;;465498;255;28861;-71
2021/06/14 05:26:52;;;;;;;5.03;3.53;;;13.30;99.90;;;;;;472297;236;28262;-71
2021/06/14 05:28:51;;;;;;;4.37;3.80;;;13.30;99.90;;;;;;477083;249;28281;-71
2021/06/14 05:30:52;;;;;;;7.33;4.37;;;13.40;99.90;;;;;;477566;248;28447;-72
2021/06/14 05:32:53;;;;;;;4.17;3.70;;;13.40;99.90;;;;;;477563;245;28281;-71
2021/06/14 05:34:55;;;;;;;5.67;3.80;;;13.50;99.90;;;;;;477564;249;28750;-71
2021/06/14 05:36:56;;;;;;;6.30;4.00;;;13.60;99.90;;;;;;480149;241;28795;-72
2021/06/14 05:39:01;;;;;;;5.17;4.17;;;13.70;99.90;;;;;;483522;244;29206;-71
2021/06/14 05:40:59;;;;;;;4.60;3.50;;;13.80;99.90;;;;;;483101;246;28431;-72
2021/06/14 05:43:02;;;;;;;5.80;4.13;;;14.00;99.90;;;;;;483499;244;28426;-71
2021/06/14 05:45:01;;;;;;;6.03;3.83;;;14.20;99.90;;;;;;483250;244;28454;-71
2021/06/14 05:47:02;;;;;;;4.90;3.40;;;14.20;99.90;;;;;;482957;243;28680;-72
2021/06/14 05:49:04;;;;;;;5.00;3.50;;;14.30;99.90;;;;;;490481;242;28398;-71
2021/06/14 05:51:05;;;;;;;4.60;3.67;;;14.40;99.90;;;;;;490417;242;28945;-72
2021/06/14 05:53:06;;;;;;;8.30;4.20;;;14.50;99.90;;;;;;490261;242;29367;-71
2021/06/14 05:55:07;;;;;;;4.40;3.40;;;14.70;99.90;;;;;;490472;242;29330;-72
2021/06/14 05:57:09;;;;;;;5.60;3.37;;;14.80;99.90;;;;;;481653;241;29386;-71
2021/06/14 05:59:10;;;;;;;6.43;3.17;;;14.90;99.90;;;;;;476401;249;28774;-71
2021/06/14 06:01:14;;;;;;;5.20;3.57;;;14.90;99.90;;;;;;476417;249;28850;-71
2021/06/14 06:03:18;;;;;;;4.70;3.30;;;14.90;99.90;;;;;;476416;249;29266;-71
2021/06/14 06:05:19;;;;;;;5.13;3.37;;;15.10;99.90;;;;;;476393;249;29259;-73
2021/06/14 06:07:21;;;;;;;4.47;3.43;;;15.20;99.90;;;;;;484244;236;29284;-71
2021/06/14 06:09:22;;;;;;;4.53;3.77;;;15.30;99.90;;;;;;487891;244;28740;-72
2021/06/14 06:11:23;;;;;;;3.60;3.30;;;15.50;99.90;;;;;;501751;237;28527;-72
2021/06/14 06:13:24;;;;;;;5.50;3.33;;;15.60;99.90;;;;;;501746;236;28493;-71
2021/06/14 06:15:26;;;;;;;4.67;2.80;;;15.60;99.90;;;;;;501720;236;28630;-70
2021/06/14 06:17:27;;;;;;;5.23;3.23;;;15.80;99.90;;;;;;487730;236;28880;-70
2021/06/14 06:19:28;;;;;;;5.33;3.30;;;15.90;99.90;;;;;;486572;244;28678;-71
2021/06/14 06:21:29;;;;;;;7.80;3.27;;;15.90;99.90;;;;;;486590;244;28867;-72
2021/06/14 06:23:31;;;;;;;5.20;3.30;;;16.00;99.90;;;;;;486555;244;30033;-71
2021/06/14 06:25:35;;;;;;;7.37;3.63;;;16.20;99.90;;;;;;486580;244;28914;-70
2021/06/14 06:27:36;;;;;;;6.70;3.77;;;16.10;99.90;;;;;;475359;238;28847;-72
2021/06/14 06:29:37;;;;;;;6.13;3.27;;;16.30;99.90;;;;;;472944;250;29148;-72
2021/06/14 06:31:38;;;;;;;4.73;3.17;;;16.40;99.90;;;;;;478812;248;28752;-70
2021/06/14 06:33:41;;;;;;;4.37;3.40;;;16.30;99.90;;;;;;478807;248;28766;-69
2021/06/14 06:35:41;;;;;;;4.60;3.80;;;16.30;99.90;;;;;;478734;248;28765;-71
2021/06/14 06:37:42;;;;;;;4.80;3.40;;;16.40;99.90;;;;;;488840;238;29309;-70
2021/06/14 06:39:43;;;;;;;5.00;3.07;;;16.50;99.90;;;;;;489639;242;29240;-72
2021/06/14 06:41:45;;;;;;;4.13;3.37;;;16.50;99.90;;;;;;489625;242;28706;-72
2021/06/14 06:43:46;;;;;;;5.10;3.20;;;16.60;99.90;;;;;;489612;242;28822;-73
2021/06/14 06:48:08;;;;;;;4.03;3.10;;;16.70;99.90;;;;;;475660;250;28910;-71
2021/06/14 06:50:09;;;;;;;6.27;4.10;;;16.90;99.90;;;;;;475672;249;28853;-71
2021/06/14 06:52:10;;;;;;;4.30;3.90;;;16.90;99.90;;;;;;475687;249;29375;-73
2021/06/14 06:54:12;;;;;;;3.33;2.93;;;17.10;99.90;;;;;;475718;249;28915;-73
2021/06/14 06:56:13;;;;;;;4.30;3.53;;;17.10;99.90;;;;;;477399;237;28785;-71
2021/06/14 06:58:15;;;;;;;4.40;3.13;;;17.00;99.90;;;;;;482279;246;28757;-71
2021/06/14 07:00:16;;;;;;;6.37;3.93;;;17.20;99.90;;;;;;482306;246;28764;-71
2021/06/14 07:02:17;;;;;;;3.83;3.20;;;17.20;99.90;;;;;;482271;246;29279;-71
2021/06/14 07:04:18;;;;;;;4.27;3.30;;;17.30;99.90;;;;;;482308;246;29311;-70
2021/06/14 07:06:20;;;;;;;5.30;3.33;;;17.20;99.90;;;;;;483418;238;29121;-72
2021/06/14 07:08:21;;;;;;;4.67;3.17;;;17.30;99.90;;;;;;486412;243;28914;-72
2021/06/14 07:10:22;;;;;;;5.27;3.47;;;17.40;99.90;;;;;;486111;244;28893;-72
2021/06/14 07:12:23;;;;;;;5.70;3.27;;;17.50;99.90;;;;;;486398;243;28945;-70
2021/06/14 07:14:25;;;;;;;8.90;3.80;;;17.60;99.90;;;;;;486412;243;28844;-73
2021/06/14 07:16:26;;;;;;;4.90;3.47;;;17.70;99.90;;;;;;485389;239;28878;-72
2021/06/14 07:18:27;;;;;;;6.00;3.37;;;17.70;99.90;;;;;;485629;245;28878;-72
2021/06/14 07:20:28;;;;;;;3.90;3.13;;;17.60;99.90;;;;;;485666;245;28913;-71
2021/06/14 07:22:30;;;;;;;5.33;3.10;;;17.70;99.90;;;;;;485624;245;29345;-72
2021/06/14 07:24:31;;;;;;;3.27;3.00;;;17.90;99.90;;;;;;485678;245;28858;-71
2021/06/14 07:26:33;;;;;;;4.87;3.60;;;17.90;99.90;;;;;;484319;235;28963;-70
2021/06/14 07:28:34;;;;;;;5.13;3.17;;;18.00;99.90;;;;;;483049;246;28785;-70
2021/06/14 07:30:35;;;;;;;4.27;3.37;;;18.00;99.90;;;;;;483103;244;28784;-70
2021/06/14 07:32:37;;;;;;;6.20;3.37;;;18.20;99.90;;;;;;483084;244;28793;-72
2021/06/14 07:34:38;;;;;;;7.70;3.20;;;18.30;99.90;;;;;;483093;244;29351;-73
2021/06/14 07:36:39;;;;;;;6.20;3.67;;;18.30;99.90;;;;;;486902;236;29447;-72
2021/06/14 07:38:41;;;;;;;5.70;3.63;;;18.30;99.90;;;;;;493280;241;28697;-70
2021/06/14 07:40:42;;;;;;;7.43;3.70;;;18.30;99.90;;;;;;493285;241;28749;-71
2021/06/14 07:42:43;;;;;;;4.13;3.10;;;18.30;99.90;;;;;;493291;241;28784;-69
2021/06/14 07:44:44;;;;;;;3.50;2.63;;;18.40;99.90;;;;;;493273;241;28741;-71
2021/06/14 07:46:46;;;;;;;3.70;2.80;;;18.40;99.90;;;;;;488643;239;29261;-70
2021/06/14 07:48:47;;;;;;;5.33;2.90;;;18.50;99.90;;;;;;484635;245;28987;-71
2021/06/14 07:50:48;;;;;;;4.33;3.20;;;18.60;99.90;;;;;;484629;245;28879;-70
2021/06/14 07:52:50;;;;;;;5.23;2.70;;;18.60;99.90;;;;;;484649;245;28943;-70
2021/06/14 07:54:51;;;;;;;5.90;2.90;;;18.60;99.90;;;;;;484655;245;28822;-69
2021/06/14 07:56:53;;;;;;;4.93;3.40;;;18.50;99.90;;;;;;488919;239;28827;-70
2021/06/14 07:58:53;;;;;;;5.60;3.03;;;18.70;99.90;;;;;;493653;241;29257;-70
2021/06/14 08:00:55;;;;;;;9.00;3.97;;;18.70;99.90;;;;;;493643;241;29311;-72
2021/06/14 08:02:56;;;;;;;3.67;2.90;;;18.80;99.90;;;;;;493651;241;29312;-72
2021/06/14 08:04:57;;;;;;;8.23;3.23;;;18.80;99.90;;;;;;493612;241;28816;-72
2021/06/14 08:06:58;;;;;;;4.07;2.90;;;18.90;99.90;;;;;;485429;235;28922;-72
2021/06/14 08:09:01;;;;;;;3.20;2.90;;;18.90;99.90;;;;;;477208;249;28884;-71
2021/06/14 08:11:01;;;;;;;4.60;3.10;;;18.90;99.90;;;;;;477206;249;28906;-72
2021/06/14 08:13:02;;;;;;;7.00;3.53;;;19.10;99.90;;;;;;477203;249;29104;-72
2021/06/14 08:15:06;;;;;;;5.30;3.67;;;19.30;99.90;;;;;;477239;249;28984;-72
2021/06/14 08:17:10;;;;;;;3.43;2.97;;;19.40;99.90;;;;;;477388;241;29539;-72
2021/06/14 08:27:59;;;;;;;4.30;3.17;;;19.60;99.90;;;;;;466157;254;28997;-71
2021/06/14 08:30:01;;;;;;;5.50;2.97;;;19.60;99.90;;;;;;466205;254;28938;-74
2021/06/14 08:32:05;;;;;;;9.70;3.10;;;19.60;99.90;;;;;;466196;254;28885;-72
2021/06/14 08:34:03;;;;;;;4.47;2.97;;;19.60;99.90;;;;;;465742;254;28923;-72
2021/06/14 08:36:04;;;;;;;4.13;3.00;;;19.70;99.90;;;;;;466314;236;28897;-69
2021/06/14 08:38:06;;;;;;;4.90;2.90;;;19.70;99.90;;;;;;468475;254;28672;-70
2021/06/14 08:40:10;;;;;;;3.90;2.53;;;19.70;99.90;;;;;;468546;254;29197;-72
2021/06/14 08:42:12;;;;;;;4.73;3.03;;;19.70;99.90;;;;;;468751;254;29245;-72
2021/06/14 08:44:13;;;;;;;3.10;2.80;;;19.80;99.90;;;;;;468757;254;29237;-73
2021/06/14 08:46:14;;;;;;;5.23;3.27;;;19.70;99.90;;;;;;471630;239;29197;-70
2021/06/14 08:48:15;;;;;;;4.77;2.87;;;19.80;99.90;;;;;;478470;248;28886;-70
2021/06/14 08:50:17;;;;;;;4.67;2.87;;;19.90;99.90;;;;;;478481;248;28884;-70
2021/06/14 08:52:21;;;;;;;3.47;2.90;;;20.10;99.90;;;;;;478455;248;28875;-70
2021/06/14 08:54:22;;;;;;;5.27;2.97;;;20.10;99.90;;;;;;478460;248;28831;-70
2021/06/14 08:56:24;;;;;;;3.43;2.67;;;20.10;99.90;;;;;;480279;236;28875;-72
2021/06/14 08:58:25;;;;;;;3.43;2.87;;;20.10;99.90;;;;;;486766;244;28982;-72
2021/06/14 09:00:29;;;;;;;4.17;2.70;;;20.10;99.90;;;;;;486755;244;28881;-72
2021/06/14 09:02:30;;;;;;;2.60;2.40;;;20.30;99.90;;;;;;486772;244;28836;-72
2021/06/14 09:04:36;;;;;;;3.83;3.20;;;20.30;99.90;;;;;;486764;244;28998;-72
2021/06/14 09:06:33;;;;;;;2.83;2.53;;;20.20;99.90;;;;;;481337;236;28886;-71
2021/06/14 09:08:34;;;;;;;3.10;2.80;;;20.30;99.90;;;;;;468084;254;28893;-71
2021/06/14 09:10:36;;;;;;;2.40;2.20;;;20.30;99.90;;;;;;468087;254;28876;-72
2021/06/14 09:12:37;;;;;;;6.80;3.00;;;20.40;99.90;;;;;;468067;254;28861;-72
2021/06/14 09:14:38;;;;;;;3.77;2.63;;;20.70;99.90;;;;;;468098;254;28839;-72
2021/06/14 09:16:40;;;;;;;3.70;2.97;;;20.70;99.90;;;;;;477343;239;28707;-72
2021/06/14 09:18:41;;;;;;;3.53;2.60;;;20.70;99.90;;;;;;486258;243;28775;-72
2021/06/14 09:20:42;;;;;;;3.30;2.93;;;20.50;99.90;;;;;;476614;246;28913;-73
2021/06/14 09:22:43;;;;;;;9.17;3.50;;;20.60;99.90;;;;;;484332;243;28738;-71
2021/06/14 09:24:45;;;;;;;5.40;2.70;;;20.80;99.90;;;;;;484316;244;28720;-72
2021/06/14 09:26:46;;;;;;;4.53;2.60;;;20.90;99.70;;;;;;479649;244;29309;-71
2021/06/14 09:28:47;;;;;;;3.70;2.60;;;20.90;99.90;;;;;;487064;244;29167;-70
2021/06/14 09:30:48;;;;;;;5.33;2.90;;;20.90;99.90;;;;;;487078;243;29225;-71
2021/06/14 09:32:50;;;;;;;3.53;2.67;;;20.80;98.80;;;;;;487056;244;29515;-71
2021/06/14 09:34:53;;;;;;;3.50;2.40;;;21.00;97.80;;;;;;488095;243;28922;-70
2021/06/14 09:36:52;;;;;;;3.87;2.50;;;21.00;97.80;;;;;;485587;234;28922;-64
2021/06/14 09:38:54;;;;;;;2.83;2.50;;;21.00;95.30;;;;;;475249;250;28881;-66
2021/06/14 09:40:57;;;;;;;4.80;2.77;;;20.90;96.80;;;;;;475284;250;28772;-66
2021/06/14 09:42:56;;;;;;;2.60;2.17;;;21.10;96.90;;;;;;475143;250;28891;-67
2021/06/14 09:44:57;;;;;;;2.60;2.33;;;21.30;96.20;;;;;;475281;250;28830;-65
2021/06/14 09:46:59;;;;;;;3.33;2.40;;;21.20;97.00;;;;;;475264;250;28805;-65
2021/06/14 09:49:05;;;;;;;3.63;2.20;;;21.20;97.40;;;;;;475265;250;28825;-66
2021/06/14 09:51:07;;;;;;;4.30;2.50;;;21.30;97.60;;;;;;475150;250;28814;-66
2021/06/14 09:53:08;;;;;;;4.70;2.43;;;21.20;97.20;;;;;;475276;250;28806;-66
2021/06/14 09:55:09;;;;;;;4.03;2.50;;;21.30;98.20;;;;;;475252;250;28821;-66
2021/06/14 09:57:10;;;;;;;4.83;2.57;;;21.30;98.30;;;;;;475295;250;28816;-68
2021/06/14 09:59:12;;;;;;;4.30;2.60;;;21.20;96.50;;;;;;475267;250;28794;-66
2021/06/14 10:01:13;;;;;;;3.93;2.40;;;21.10;97.30;;;;;;475290;250;28878;-66
2021/06/14 10:03:14;;;;;;;3.20;2.10;;;21.40;96.10;;;;;;475249;250;28828;-66
2021/06/14 10:05:15;;;;;;;5.53;2.37;;;21.50;95.40;;;;;;475293;250;29178;-66
2021/06/14 10:07:17;;;;;;;4.03;2.13;;;21.60;95.50;;;;;;475252;250;28900;-66
2021/06/14 10:09:18;;;;;;;3.13;2.30;;;21.60;97.50;;;;;;475206;250;29263;-66
2021/06/14 10:11:19;;;;;;;4.93;2.97;;;21.50;96.30;;;;;;475246;250;29395;-66
2021/06/14 10:13:20;;;;;;;7.20;2.50;;;21.60;94.40;;;;;;475265;250;29368;-66
2021/06/14 10:15:22;;;;;;;3.03;2.43;;;21.60;93.50;;;;;;475284;250;29334;-66
2021/06/14 10:17:23;;;;;;;5.80;2.40;;;21.70;95.80;;;;;;475248;250;28861;-67
2021/06/14 10:19:24;;;;;;;5.43;2.73;;;21.60;94.10;;;;;;475232;250;28770;-66
2021/06/14 10:21:25;;;;;;;4.40;2.60;;;21.60;94.00;;;;;;475240;250;28809;-66
2021/06/14 10:23:27;;;;;;;3.83;2.40;;;21.80;93.60;;;;;;475237;250;28793;-68
2021/06/14 10:25:28;;;;;;;4.03;2.77;;;22.00;93.80;;;;;;475275;250;28900;-66
2021/06/14 10:27:29;;;;;;;5.70;2.60;;;21.90;94.70;;;;;;475263;250;28921;-67
2021/06/14 10:29:30;;;;;;;3.20;2.67;;;22.00;95.90;;;;;;475227;250;28782;-66
2021/06/14 10:31:32;;;;;;;3.57;2.47;;;22.10;95.00;;;;;;475233;250;28808;-66
2021/06/14 10:33:33;;;;;;;5.27;2.67;;;21.90;92.00;;;;;;475244;250;29759;-68
2021/06/14 10:35:34;;;;;;;3.23;2.30;;;21.80;93.70;;;;;;475242;250;29246;-66
2021/06/14 10:37:35;;;;;;;2.83;2.33;;;22.00;96.20;;;;;;475231;250;29310;-67
2021/06/14 10:39:41;;;;;;;3.70;2.33;;;22.10;94.10;;;;;;475251;250;29245;-66
2021/06/14 10:41:39;;;;;;;2.37;2.20;;;22.10;94.10;;;;;;474978;250;28822;-66
2021/06/14 10:43:39;;;;;;;3.10;2.77;;;22.00;95.00;;;;;;475209;250;28812;-68
2021/06/14 10:45:40;;;;;;;4.27;3.13;;;22.00;95.70;;;;;;475249;250;28865;-66
2021/06/14 10:47:42;;;;;;;2.43;2.20;;;22.10;96.10;;;;;;475270;250;28825;-67
2021/06/14 10:49:43;;;;;;;4.83;2.43;;;22.20;95.60;;;;;;475227;250;28828;-66
2021/06/14 10:51:45;;;;;;;2.77;2.50;;;22.20;96.20;;;;;;475239;250;28924;-66